Wetterdaten: Woche 04.01.21 - 10.01.21 (KW1)
Datum Zeit Temp. A. Feuchte A. Luftdruck Regen Wind Richtung Taupunkt Windchill Windben
04.01.2021 00:00 2,3 C 83 % 1012,3 hPa 0,0 l/m 0,8 km/h N -0,3 C 2,3 C 4,0 km/h
04.01.2021 01:00 2,2 C 83 % 1012,3 hPa 0,0 l/m 0,0 km/h N -0,4 C 2,2 C 2,4 km/h
04.01.2021 02:00 2,1 C 83 % 1012,5 hPa 0,0 l/m 0,0 km/h N -0,5 C 2,1 C 0,0 km/h
04.01.2021 03:00 2,1 C 83 % 1012,5 hPa 0,0 l/m 0,0 km/h N -0,5 C 2,1 C 0,0 km/h
04.01.2021 04:00 1,9 C 83 % 1012,3 hPa 0,0 l/m 0,8 km/h N -0,6 C 1,9 C 6,4 km/h
04.01.2021 05:00 1,5 C 83 % 1012,7 hPa 0,0 l/m 0,0 km/h N -1,0 C 1,5 C 4,8 km/h
04.01.2021 06:00 1,4 C 83 % 1012,9 hPa 0,0 l/m 0,0 km/h N -1,2 C 1,4 C 2,4 km/h
04.01.2021 07:00 1,3 C 83 % 1012,9 hPa 0,5 l/m 0,0 km/h N -1,3 C 1,3 C 0,0 km/h
04.01.2021 08:00 1,3 C 83 % 1013,2 hPa 0,0 l/m 0,0 km/h N -1,3 C 1,3 C 0,8 km/h
04.01.2021 09:00 1,3 C 82 % 1013,5 hPa 0,0 l/m 0,0 km/h N -1,4 C 1,3 C 0,8 km/h
04.01.2021 10:00 1,8 C 82 % 1013,8 hPa 0,0 l/m 0,0 km/h N -0,9 C 1,8 C 2,4 km/h
04.01.2021 11:00 1,7 C 82 % 1013,8 hPa 0,0 l/m 0,0 km/h N -1,0 C 1,7 C 2,0 km/h
04.01.2021 12:00 1,7 C 82 % 1012,9 hPa 0,3 l/m 0,6 km/h N -1,1 C 1,7 C 3,6 km/h
04.01.2021 13:00 2,0 C 82 % 1012,5 hPa 0,5 l/m 0,0 km/h N -0,7 C 2,0 C 0,0 km/h
04.01.2021 14:00 2,4 C 82 % 1012,4 hPa 0,0 l/m 0,0 km/h N -0,4 C 2,4 C 0,0 km/h
04.01.2021 15:00 2,4 C 82 % 1012,3 hPa 0,0 l/m 0,0 km/h N -0,4 C 2,4 C 0,4 km/h
04.01.2021 16:00 2,2 C 82 % 1012,3 hPa 0,0 l/m 0,0 km/h N -0,5 C 2,2 C 0,0 km/h
04.01.2021 17:00 2,2 C 82 % 1012,3 hPa 0,0 l/m 0,0 km/h N -0,5 C 2,2 C 0,0 km/h
04.01.2021 18:00 2,4 C 83 % 1012,7 hPa 0,3 l/m 0,0 km/h N -0,3 C 2,4 C 0,0 km/h
04.01.2021 19:00 2,5 C 83 % 1012,3 hPa 0,0 l/m 0,0 km/h N -0,0 C 2,5 C 0,0 km/h
04.01.2021 20:00 2,7 C 83 % 1011,9 hPa 0,0 l/m 0,0 km/h N 0,1 C 2,7 C 0,0 km/h
04.01.2021 21:00 2,8 C 83 % 1011,6 hPa 0,0 l/m 0,0 km/h N 0,2 C 2,8 C 0,0 km/h
04.01.2021 22:00 2,8 C 83 % 1011,4 hPa 0,0 l/m 0,0 km/h N 0,3 C 2,8 C 0,0 km/h
04.01.2021 23:00 3,1 C 83 % 1011,1 hPa 0,0 l/m 0,0 km/h N 0,5 C 3,1 C 0,0 km/h
05.01.2021 00:00 3,1 C 83 % 1010,9 hPa 0,0 l/m 0,0 km/h N 0,5 C 3,1 C 0,0 km/h
05.01.2021 01:00 3,0 C 83 % 1010,7 hPa 0,0 l/m 0,0 km/h N 0,4 C 3,0 C 0,0 km/h
05.01.2021 02:00 3,1 C 83 % 1010,5 hPa 0,0 l/m 0,0 km/h N 0,5 C 3,1 C 0,0 km/h
05.01.2021 03:00 3,2 C 83 % 1010,3 hPa 0,0 l/m 0,0 km/h N 0,6 C 3,2 C 0,0 km/h
05.01.2021 04:00 3,1 C 83 % 1009,9 hPa 0,0 l/m 0,0 km/h N 0,5 C 3,1 C 0,0 km/h
05.01.2021 05:00 3,2 C 83 % 1009,7 hPa 0,0 l/m 0,0 km/h N 0,6 C 3,2 C 0,0 km/h
05.01.2021 06:00 3,3 C 83 % 1009,8 hPa 0,0 l/m 0,0 km/h N 0,7 C 3,3 C 0,0 km/h
05.01.2021 07:00 3,5 C 84 % 1009,9 hPa 0,0 l/m 0,0 km/h N 1,0 C 3,5 C 0,0 km/h
05.01.2021 08:00 3,4 C 83 % 1010,2 hPa 0,0 l/m 0,1 km/h N 0,8 C 3,4 C 0,8 km/h
05.01.2021 09:00 3,6 C 84 % 1010,3 hPa 0,0 l/m 0,3 km/h N 1,1 C 3,6 C 3,2 km/h
05.01.2021 10:00 3,6 C 84 % 1010,5 hPa 0,0 l/m 0,9 km/h N 1,2 C 3,6 C 5,6 km/h
05.01.2021 11:00 3,6 C 84 % 1010,4 hPa 0,0 l/m 1,5 km/h N 1,2 C 3,6 C 6,8 km/h
05.01.2021 12:00 3,8 C 83 % 1010,2 hPa 0,0 l/m 4,0 km/h N 1,2 C 3,8 C 10,1 km/h
05.01.2021 13:00 3,7 C 83 % 1010,1 hPa 0,0 l/m 1,8 km/h N 1,0 C 3,7 C 6,8 km/h
05.01.2021 14:00 3,8 C 82 % 1010,4 hPa 0,0 l/m 0,2 km/h N 1,0 C 3,8 C 3,6 km/h
05.01.2021 15:00 3,7 C 82 % 1010,6 hPa 0,0 l/m 0,0 km/h N 0,9 C 3,7 C 0,8 km/h
05.01.2021 16:00 3,6 C 82 % 1010,9 hPa 0,0 l/m 0,1 km/h N 0,8 C 3,6 C 2,0 km/h
05.01.2021 17:00 3,6 C 82 % 1011,0 hPa 0,0 l/m 0,6 km/h N 0,9 C 3,6 C 3,6 km/h
05.01.2021 18:00 3,6 C 82 % 1011,1 hPa 0,0 l/m 0,0 km/h N 0,8 C 3,6 C 0,8 km/h
05.01.2021 19:00 3,3 C 83 % 1010,9 hPa 0,0 l/m 0,0 km/h N 0,6 C 3,3 C 0,0 km/h
05.01.2021 20:00 3,1 C 83 % 1011,1 hPa 0,0 l/m 0,0 km/h N 0,5 C 3,1 C 0,0 km/h
05.01.2021 21:00 3,0 C 83 % 1011,2 hPa 0,0 l/m 0,0 km/h N 0,4 C 3,0 C 0,0 km/h
05.01.2021 22:00 3,1 C 82 % 1011,3 hPa 0,0 l/m 0,0 km/h N 0,3 C 3,1 C 0,0 km/h
05.01.2021 23:00 3,0 C 82 % 1011,3 hPa 0,0 l/m 0,0 km/h N 0,2 C 3,0 C 0,0 km/h
06.01.2021 00:00 2,9 C 82 % 1011,0 hPa 0,0 l/m 0,0 km/h N 0,2 C 2,9 C 0,0 km/h
06.01.2021 01:00 2,9 C 82 % 1010,7 hPa 1,0 l/m 0,0 km/h N 0,1 C 2,9 C 0,0 km/h
06.01.2021 02:00 2,9 C 82 % 1010,3 hPa 0,5 l/m 0,0 km/h N 0,1 C 2,9 C 0,0 km/h
06.01.2021 03:00 2,9 C 82 % 1009,8 hPa 0,5 l/m 0,0 km/h N 0,1 C 2,9 C 0,0 km/h
06.01.2021 04:00 2,7 C 82 % 1009,7 hPa 1,6 l/m 0,2 km/h N -0,1 C 2,7 C 2,4 km/h
06.01.2021 05:00 1,9 C 82 % 1009,3 hPa 1,3 l/m 0,0 km/h N -0,9 C 1,9 C 0,0 km/h
06.01.2021 06:00 0,8 C 82 % 1009,0 hPa 0,0 l/m 0,0 km/h N -1,9 C 0,8 C 0,0 km/h
06.01.2021 07:00 0,3 C 82 % 1008,9 hPa 0,0 l/m 0,0 km/h N -2,4 C 0,3 C 0,0 km/h
06.01.2021 08:00 0,3 C 82 % 1008,9 hPa 0,0 l/m 0,0 km/h N -2,4 C 0,3 C 0,0 km/h
06.01.2021 09:00 0,6 C 82 % 1009,1 hPa 0,0 l/m 0,0 km/h N -2,1 C 0,6 C 0,0 km/h
06.01.2021 10:00 1,1 C 82 % 1009,1 hPa 0,0 l/m 0,0 km/h N -1,6 C 1,1 C 0,8 km/h
06.01.2021 11:00 1,5 C 82 % 1009,0 hPa 0,0 l/m 0,0 km/h N -1,2 C 1,5 C 0,0 km/h
06.01.2021 12:00 2,2 C 82 % 1008,7 hPa 1,0 l/m 0,0 km/h N -0,6 C 2,2 C 0,0 km/h
06.01.2021 13:00 2,1 C 82 % 1008,6 hPa 1,8 l/m 0,0 km/h N -0,6 C 2,1 C 0,0 km/h
06.01.2021 14:00 1,9 C 82 % 1009,0 hPa 1,0 l/m 0,2 km/h N -0,8 C 1,9 C 1,6 km/h
06.01.2021 15:00 2,3 C 82 % 1009,3 hPa 0,8 l/m 0,4 km/h N -0,4 C 2,3 C 2,8 km/h
06.01.2021 16:00 2,2 C 82 % 1009,7 hPa 0,3 l/m 0,0 km/h N -0,6 C 2,2 C 1,2 km/h
06.01.2021 17:00 1,1 C 82 % 1010,0 hPa 0,0 l/m 0,0 km/h N -1,6 C 1,1 C 0,0 km/h
06.01.2021 18:00 0,4 C 82 % 1010,5 hPa 0,0 l/m 0,0 km/h N -2,3 C 0,4 C 0,0 km/h
06.01.2021 19:00 0,1 C 82 % 1011,0 hPa 0,0 l/m 0,0 km/h N -2,6 C 0,1 C 0,0 km/h
06.01.2021 20:00 0,2 C 82 % 1011,0 hPa 0,0 l/m 0,0 km/h N -2,5 C 0,2 C 0,0 km/h
06.01.2021 21:00 0,2 C 82 % 1011,1 hPa 0,0 l/m 0,0 km/h N -2,5 C 0,2 C 0,0 km/h
06.01.2021 22:00 0,4 C 82 % 1011,1 hPa 0,0 l/m 0,4 km/h N -2,3 C 0,4 C 8,1 km/h
06.01.2021 23:00 1,3 C 82 % 1011,0 hPa 0,0 l/m 2,6 km/h N -1,5 C 1,3 C 11,3 km/h
07.01.2021 00:00 1,7 C 83 % 1011,2 hPa 0,0 l/m 2,4 km/h N -0,9 C 1,7 C 14,5 km/h
07.01.2021 01:00 1,9 C 82 % 1011,5 hPa 0,0 l/m 5,7 km/h N -0,8 C 1,9 C 16,5 km/h
07.01.2021 02:00 1,8 C 82 % 1011,9 hPa 0,0 l/m 5,3 km/h N -0,9 C 1,7 C 15,7 km/h
07.01.2021 03:00 1,8 C 82 % 1012,1 hPa 0,0 l/m 3,4 km/h N -0,9 C 1,8 C 13,3 km/h
07.01.2021 04:00 1,6 C 82 % 1012,4 hPa 0,0 l/m 2,7 km/h N -1,1 C 1,6 C 14,1 km/h
07.01.2021 05:00 1,4 C 83 % 1012,8 hPa 0,0 l/m 2,2 km/h N -1,1 C 1,4 C 13,3 km/h
07.01.2021 06:00 1,3 C 83 % 1013,2 hPa 0,0 l/m 1,5 km/h N -1,2 C 1,3 C 9,3 km/h
07.01.2021 07:00 1,3 C 83 % 1013,7 hPa 0,0 l/m 1,3 km/h N -1,2 C 1,3 C 9,7 km/h
07.01.2021 08:00 1,5 C 82 % 1014,2 hPa 0,0 l/m 2,4 km/h N -1,1 C 1,5 C 14,1 km/h
07.01.2021 09:00 2,2 C 81 % 1014,3 hPa 0,0 l/m 2,5 km/h N -0,7 C 2,2 C 15,3 km/h
07.01.2021 10:00 2,9 C 79 % 1014,2 hPa 0,3 l/m 2,9 km/h N -0,4 C 2,9 C 12,5 km/h
07.01.2021 11:00 3,7 C 76 % 1014,1 hPa 0,3 l/m 4,3 km/h N -0,2 C 3,7 C 16,9 km/h
07.01.2021 12:00 4,1 C 74 % 1014,1 hPa 0,0 l/m 5,5 km/h N -0,2 C 4,1 C 19,3 km/h
07.01.2021 13:00 4,4 C 75 % 1014,1 hPa 0,3 l/m 4,7 km/h N 0,3 C 4,3 C 18,9 km/h
07.01.2021 14:00 4,2 C 74 % 1014,2 hPa 0,0 l/m 3,3 km/h N -0,0 C 4,2 C 17,7 km/h
07.01.2021 15:00 3,6 C 74 % 1014,5 hPa 0,0 l/m 1,1 km/h N -0,6 C 3,6 C 11,3 km/h
07.01.2021 16:00 2,7 C 76 % 1014,5 hPa 0,0 l/m 0,4 km/h N -1,1 C 2,7 C 6,4 km/h
07.01.2021 17:00 1,5 C 78 % 1014,8 hPa 0,0 l/m 0,0 km/h N -2,0 C 1,5 C 0,0 km/h
07.01.2021 18:00 0,0 C 80 % 1015,1 hPa 0,0 l/m 0,0 km/h N -3,0 C 0,0 C 0,0 km/h
07.01.2021 19:00 0,5 C 82 % 1015,2 hPa 0,0 l/m 0,0 km/h N -2,2 C 0,5 C 0,0 km/h
07.01.2021 20:00 0,7 C 82 % 1015,1 hPa 0,0 l/m 0,0 km/h N -1,9 C 0,7 C 0,0 km/h
07.01.2021 21:00 0,5 C 83 % 1015,1 hPa 0,0 l/m 0,0 km/h N -2,1 C 0,5 C 0,0 km/h
07.01.2021 22:00 0,5 C 83 % 1015,0 hPa 0,0 l/m 0,0 km/h N -2,1 C 0,5 C 0,0 km/h
07.01.2021 23:00 0,4 C 83 % 1014,8 hPa 0,0 l/m 0,0 km/h N -2,2 C 0,4 C 0,0 km/h
08.01.2021 00:00 0,3 C 83 % 1014,8 hPa 0,0 l/m 0,0 km/h N -2,3 C 0,3 C 0,0 km/h
08.01.2021 01:00 0,0 C 83 % 1014,4 hPa 0,0 l/m 0,0 km/h N -2,5 C 0,0 C 0,0 km/h
08.01.2021 02:00 -0,2 C 83 % 1014,7 hPa 0,0 l/m 0,0 km/h N -2,7 C -0,2 C 0,0 km/h
08.01.2021 03:00 -0,3 C 83 % 1014,5 hPa 0,0 l/m 0,0 km/h N -2,8 C -0,3 C 0,0 km/h
08.01.2021 04:00 -0,3 C 83 % 1014,5 hPa 0,0 l/m 0,0 km/h N -2,8 C -0,3 C 0,0 km/h
08.01.2021 05:00 -0,4 C 83 % 1014,6 hPa 0,0 l/m 0,0 km/h N -3,0 C -0,4 C 0,0 km/h
08.01.2021 06:00 -0,5 C 83 % 1014,5 hPa 0,0 l/m 0,0 km/h N -3,0 C -0,5 C 0,0 km/h
08.01.2021 07:00 -0,6 C 83 % 1014,7 hPa 0,0 l/m 0,0 km/h N -3,1 C -0,6 C 0,0 km/h
08.01.2021 08:00 -0,6 C 83 % 1015,1 hPa 0,0 l/m 0,0 km/h N -3,2 C -0,6 C 0,0 km/h
08.01.2021 09:00 -0,1 C 82 % 1015,4 hPa 0,0 l/m 0,0 km/h N -2,8 C -0,1 C 0,0 km/h
08.01.2021 10:00 1,1 C 82 % 1015,2 hPa 0,0 l/m 1,1 km/h N -1,6 C 1,1 C 5,2 km/h
08.01.2021 11:00 2,9 C 83 % 1015,0 hPa 0,0 l/m 0,6 km/h N 0,2 C 2,9 C 4,8 km/h
08.01.2021 12:00 3,7 C 81 % 1014,7 hPa 0,0 l/m 0,1 km/h N 0,8 C 3,7 C 2,4 km/h
08.01.2021 13:00 3,8 C 77 % 1014,6 hPa 0,0 l/m 1,0 km/h N 0,1 C 3,8 C 4,4 km/h
08.01.2021 14:00 4,0 C 69 % 1014,6 hPa 0,0 l/m 3,2 km/h N -1,1 C 4,0 C 12,9 km/h
08.01.2021 15:00 3,8 C 68 % 1015,0 hPa 0,0 l/m 1,0 km/h N -1,6 C 3,8 C 8,4 km/h
08.01.2021 16:00 2,8 C 71 % 1015,5 hPa 0,0 l/m 4,7 km/h N -2,1 C 2,8 C 17,3 km/h
08.01.2021 17:00 1,7 C 75 % 1016,0 hPa 0,0 l/m 0,3 km/h N -2,4 C 1,7 C 4,4 km/h
08.01.2021 18:00 1,0 C 77 % 1016,5 hPa 0,0 l/m 0,3 km/h N -2,6 C 1,0 C 4,0 km/h
08.01.2021 19:00 0,3 C 78 % 1017,1 hPa 0,0 l/m 0,0 km/h N -3,0 C 0,3 C 0,0 km/h
08.01.2021 20:00 -0,4 C 80 % 1017,4 hPa 0,0 l/m 0,0 km/h N -3,4 C -0,4 C 0,0 km/h
08.01.2021 21:00 -0,2 C 82 % 1017,6 hPa 0,0 l/m 0,8 km/h N -3,0 C -0,2 C 4,0 km/h
08.01.2021 22:00 0,2 C 82 % 1017,8 hPa 0,0 l/m 0,0 km/h N -2,5 C 0,2 C 0,8 km/h
08.01.2021 23:00 0,5 C 82 % 1017,8 hPa 0,0 l/m 0,1 km/h N -2,2 C 0,5 C 3,6 km/h
09.01.2021 00:00 0,9 C 82 % 1017,8 hPa 0,0 l/m 0,1 km/h N -1,9 C 0,9 C 1,2 km/h
09.01.2021 01:00 1,0 C 81 % 1017,9 hPa 0,0 l/m 0,3 km/h N -1,9 C 1,0 C 4,0 km/h
09.01.2021 02:00 1,3 C 81 % 1018,1 hPa 0,0 l/m 1,1 km/h N -1,5 C 1,3 C 8,0 km/h
09.01.2021 03:00 1,1 C 82 % 1018,2 hPa 0,0 l/m 0,0 km/h N -1,7 C 1,1 C 0,0 km/h
09.01.2021 04:00 0,8 C 82 % 1018,4 hPa 0,0 l/m 0,2 km/h N -2,0 C 0,8 C 4,0 km/h
09.01.2021 05:00 0,9 C 81 % 1018,6 hPa 0,0 l/m 1,1 km/h N -2,0 C 0,9 C 10,4 km/h
09.01.2021 06:00 1,1 C 80 % 1019,1 hPa 0,0 l/m 0,3 km/h N -1,9 C 1,1 C 4,4 km/h
09.01.2021 07:00 0,9 C 81 % 1019,4 hPa 0,0 l/m 0,0 km/h N -2,0 C 0,9 C 0,0 km/h
09.01.2021 08:00 0,3 C 81 % 1020,0 hPa 0,0 l/m 0,0 km/h N -2,5 C 0,3 C 0,0 km/h
09.01.2021 09:00 0,8 C 82 % 1020,6 hPa 0,0 l/m 0,0 km/h N -1,9 C 0,8 C 1,2 km/h
09.01.2021 10:00 2,1 C 79 % 1020,6 hPa 0,0 l/m 2,2 km/h N -1,2 C 2,1 C 9,3 km/h
09.01.2021 11:00 2,7 C 76 % 1020,1 hPa 0,0 l/m 0,9 km/h N -1,0 C 2,7 C 8,0 km/h
09.01.2021 12:00 3,0 C 75 % 1019,8 hPa 0,0 l/m 6,5 km/h N -1,1 C 2,1 C 17,3 km/h
09.01.2021 13:00 3,0 C 71 % 1020,2 hPa 0,0 l/m 5,2 km/h N -1,7 C 3,0 C 14,1 km/h
09.01.2021 14:00 2,9 C 72 % 1020,3 hPa 0,0 l/m 3,6 km/h N -1,7 C 2,9 C 10,9 km/h
09.01.2021 15:00 2,7 C 72 % 1020,6 hPa 0,0 l/m 1,1 km/h N -1,9 C 2,7 C 6,4 km/h
09.01.2021 16:00 2,1 C 73 % 1021,0 hPa 0,0 l/m 0,0 km/h N -2,2 C 2,1 C 0,4 km/h
09.01.2021 17:00 1,5 C 75 % 1021,3 hPa 0,0 l/m 0,0 km/h N -2,4 C 1,5 C 0,4 km/h
09.01.2021 18:00 0,8 C 77 % 1021,7 hPa 0,0 l/m 0,0 km/h N -2,8 C 0,8 C 0,4 km/h
09.01.2021 19:00 0,3 C 80 % 1022,1 hPa 0,0 l/m 0,0 km/h N -2,8 C 0,3 C 0,0 km/h
09.01.2021 20:00 0,5 C 80 % 1022,3 hPa 0,0 l/m 0,0 km/h N -2,6 C 0,5 C 2,8 km/h
09.01.2021 21:00 -0,1 C 80 % 1022,6 hPa 0,0 l/m 0,0 km/h N -3,1 C -0,1 C 0,0 km/h
09.01.2021 22:00 -0,1 C 81 % 1022,8 hPa 0,0 l/m 0,0 km/h N -2,9 C -0,1 C 0,0 km/h
09.01.2021 23:00 -1,1 C 82 % 1022,9 hPa 0,0 l/m 0,0 km/h N -3,8 C -1,1 C 0,0 km/h
10.01.2021 00:00 -1,4 C 83 % 1022,9 hPa 0,0 l/m 0,0 km/h N -4,0 C -1,4 C 0,0 km/h
10.01.2021 01:00 -1,3 C 83 % 1023,0 hPa 0,0 l/m 0,0 km/h N -3,8 C -1,3 C 0,0 km/h
10.01.2021 02:00 -0,9 C 83 % 1023,2 hPa 0,0 l/m 0,0 km/h N -3,4 C -0,9 C 0,0 km/h
10.01.2021 03:00 -1,4 C 83 % 1023,2 hPa 0,0 l/m 0,0 km/h N -3,9 C -1,4 C 0,0 km/h
10.01.2021 04:00 -2,4 C 83 % 1023,3 hPa 0,0 l/m 0,0 km/h N -4,9 C -2,4 C 0,0 km/h
10.01.2021 05:00 -3,3 C 83 % 1023,4 hPa 0,0 l/m 0,0 km/h N -5,7 C -3,3 C 0,0 km/h
10.01.2021 06:00 -3,3 C 83 % 1023,6 hPa 0,0 l/m 0,0 km/h N -5,8 C -3,3 C 0,0 km/h
10.01.2021 07:00 -3,3 C 83 % 1023,9 hPa 0,0 l/m 0,0 km/h N -5,7 C -3,3 C 0,0 km/h
10.01.2021 08:00 -3,2 C 83 % 1024,4 hPa 0,0 l/m 0,0 km/h N -5,7 C -3,2 C 0,0 km/h
10.01.2021 09:00 -2,4 C 83 % 1024,6 hPa 0,0 l/m 0,3 km/h N -4,9 C -2,4 C 2,4 km/h
10.01.2021 10:00 -1,4 C 83 % 1024,8 hPa 0,0 l/m 0,0 km/h N -3,9 C -1,4 C 0,8 km/h
10.01.2021 11:00 -0,8 C 83 % 1024,7 hPa 0,0 l/m 0,0 km/h N -3,3 C -0,8 C 0,0 km/h
10.01.2021 12:00 -0,1 C 83 % 1023,9 hPa 0,0 l/m 0,1 km/h N -2,6 C -0,1 C 2,0 km/h
10.01.2021 13:00 0,4 C 82 % 1023,3 hPa 0,0 l/m 0,0 km/h N -2,3 C 0,4 C 0,8 km/h
10.01.2021 14:00 0,8 C 81 % 1022,9 hPa 0,0 l/m 0,0 km/h N -2,1 C 0,8 C 0,8 km/h
10.01.2021 15:00 0,9 C 81 % 1023,0 hPa 0,0 l/m 0,0 km/h N -2,0 C 0,9 C 0,0 km/h
10.01.2021 16:00 0,1 C 81 % 1023,3 hPa 0,0 l/m 0,0 km/h N -2,8 C 0,1 C 0,0 km/h
10.01.2021 17:00 -1,4 C 81 % 1023,5 hPa 0,0 l/m 0,0 km/h N -4,2 C -1,4 C 0,0 km/h
10.01.2021 18:00 -2,5 C 82 % 1023,7 hPa 0,0 l/m 0,0 km/h N -5,2 C -2,5 C 0,0 km/h
10.01.2021 19:00 -3,1 C 83 % 1023,7 hPa 0,0 l/m 0,0 km/h N -5,6 C -3,1 C 0,0 km/h
10.01.2021 20:00 -3,7 C 83 % 1023,6 hPa 0,0 l/m 0,0 km/h N -6,2 C -3,7 C 0,0 km/h
10.01.2021 21:00 -4,4 C 84 % 1023,3 hPa 0,0 l/m 0,0 km/h N -6,7 C -4,4 C 0,0 km/h
10.01.2021 22:00 -4,6 C 84 % 1023,4 hPa 0,0 l/m 0,0 km/h N -6,9 C -4,6 C 0,4 km/h
10.01.2021 23:00 -3,9 C 83 % 1023,6 hPa 0,0 l/m 0,3 km/h N -6,3 C -3,9 C 4,0 km/h
Min-Datum _ 10.01.21 08.01.21 06.01.21 - 04.01.21 - 10.01.21 10.01.21 04.01.21
_ Min-Zeit 21:45 14:30 13:00 - 00:00 - 22:30 22:00 00:00
Minimum _ -4,7 C 67 % 1008,5 hPa - 0,0 km/h - -7,0 C -4,7 C 0,0 km/h
Max-Datum _ 07.01.21 05.01.21 10.01.21 06.01.21 09.01.21 - 05.01.21 07.01.21 07.01.21
_ Max-Zeit 13:30 07:00 10:30 13:00 12:30 - 12:15 13:30 12:15
Maximum _ 4,7 C 84 % 1024,9 hPa 1,8 l/m 8,6 km/h
N
- 1,3 C 4,7 C 20,9 km/h
N
Durchschnitt _ 1,3 C 81 % 1015,2 hPa #12,2 l/m 0,6 km/h N -1,6 C 1,3 C 3,1 km/h